Time;durP1;ratioP1;P1;durP2;ratioP2;P2;SDS_P1;SDS_P2;PMS_P1;PMS_P2;Temp;Humidity;BMP_temperature;BMP_pressure;BME280_temperature;BME280_humidity;BME280_pressure;Samples;Min_cycle;Max_cycle;Signal;HPM_P1;HPM_P2
2023/04/26 00:01:34;;;;;;;3.93;3.30;;;9.10;52.00;;;;;;5065213;28;20490;-85
2023/04/26 00:04:01;;;;;;;6.50;3.43;;;9.10;51.20;;;;;;5072040;28;20448;-84
2023/04/26 00:06:28;;;;;;;3.77;3.20;;;9.20;52.00;;;;;;5088702;28;20451;-86
2023/04/26 00:08:55;;;;;;;4.70;3.47;;;9.50;51.60;;;;;;5088131;28;20482;-84
2023/04/26 00:11:22;;;;;;;4.67;3.50;;;9.70;51.40;;;;;;5048166;28;20465;-84
2023/04/26 00:13:49;;;;;;;6.00;3.60;;;9.90;51.10;;;;;;5040618;28;20475;-84
2023/04/26 00:16:18;;;;;;;8.13;3.60;;;10.00;50.00;;;;;;5088487;28;20479;-84
2023/04/26 00:18:46;;;;;;;6.70;3.07;;;10.10;50.10;;;;;;5091317;28;20447;-82
2023/04/26 00:21:13;;;;;;;6.33;3.60;;;10.20;49.70;;;;;;5071974;28;22278;-84
2023/04/26 00:23:41;;;;;;;6.53;3.93;;;10.20;49.40;;;;;;5071908;28;20462;-88
2023/04/26 00:26:08;;;;;;;5.77;3.70;;;10.20;50.10;;;;;;5062820;28;20513;-85
2023/04/26 00:28:35;;;;;;;6.80;3.10;;;9.90;50.00;;;;;;5088610;28;20927;-85
2023/04/26 00:31:02;;;;;;;5.17;3.00;;;9.60;50.70;;;;;;5058369;28;20462;-84
2023/04/26 00:33:30;;;;;;;4.10;3.63;;;9.70;50.30;;;;;;5088985;28;20479;-88
2023/04/26 00:35:57;;;;;;;4.43;3.30;;;9.70;50.00;;;;;;5071893;28;20466;-83
2023/04/26 00:38:24;;;;;;;7.40;3.47;;;9.70;50.40;;;;;;5055949;28;20464;-85
2023/04/26 00:40:51;;;;;;;5.83;3.33;;;9.70;50.30;;;;;;5046625;28;20452;-84
2023/04/26 00:43:18;;;;;;;6.93;4.30;;;9.70;49.50;;;;;;5075585;28;20955;-86
2023/04/26 00:45:46;;;;;;;8.23;3.87;;;9.60;50.40;;;;;;5093927;27;20462;-85
2023/04/26 00:48:13;;;;;;;5.10;4.20;;;9.70;50.60;;;;;;5076805;28;20902;-85
2023/04/26 00:50:41;;;;;;;7.70;4.63;;;9.40;50.30;;;;;;5091652;28;20435;-85
2023/04/26 00:53:09;;;;;;;5.13;3.97;;;9.30;50.70;;;;;;5073394;27;20942;-85
2023/04/26 00:55:37;;;;;;;6.10;4.57;;;9.30;50.80;;;;;;5078170;28;21033;-84
2023/04/26 00:58:04;;;;;;;7.13;4.00;;;9.30;50.40;;;;;;5094785;27;20447;-85
2023/04/26 01:00:31;;;;;;;9.57;4.20;;;9.30;50.70;;;;;;5062735;28;20855;-84
2023/04/26 01:02:58;;;;;;;6.87;3.70;;;9.40;50.80;;;;;;5093469;27;20527;-87
2023/04/26 01:05:25;;;;;;;8.37;3.97;;;9.40;50.30;;;;;;5073881;28;20505;-83
2023/04/26 01:07:54;;;;;;;6.87;4.63;;;9.30;50.80;;;;;;5076620;28;20444;-84
2023/04/26 01:10:21;;;;;;;3.73;3.33;;;9.20;51.50;;;;;;5075939;28;20443;-83
2023/04/26 01:12:50;;;;;;;5.60;3.80;;;8.90;51.90;;;;;;5050062;28;21072;-84
2023/04/26 01:15:18;;;;;;;8.70;4.60;;;8.90;51.80;;;;;;5074565;27;20469;-85
2023/04/26 01:17:46;;;;;;;5.13;3.80;;;9.00;52.00;;;;;;5108765;27;20456;-85
2023/04/26 01:20:14;;;;;;;4.00;3.50;;;9.20;51.90;;;;;;5093297;27;20447;-82
2023/04/26 01:22:42;;;;;;;4.77;4.20;;;9.20;51.30;;;;;;5092337;28;20479;-85
2023/04/26 01:25:12;;;;;;;8.60;4.47;;;9.30;51.00;;;;;;5073358;28;21181;-84
2023/04/26 01:27:40;;;;;;;7.60;4.90;;;9.30;51.00;;;;;;5048538;28;20446;-88
2023/04/26 01:30:08;;;;;;;5.43;3.50;;;9.30;51.00;;;;;;5076017;27;20460;-84
2023/04/26 01:32:35;;;;;;;4.53;3.57;;;9.40;50.70;;;;;;5048689;28;20505;-85
2023/04/26 01:35:04;;;;;;;9.13;4.10;;;9.40;50.70;;;;;;5108000;27;21081;-86
2023/04/26 01:37:31;;;;;;;7.37;4.07;;;9.40;50.60;;;;;;5067938;28;20455;-85
2023/04/26 01:40:01;;;;;;;9.60;4.07;;;9.50;50.70;;;;;;5045404;27;20448;-84
2023/04/26 01:42:28;;;;;;;7.60;3.30;;;9.40;50.20;;;;;;5106411;27;20451;-83
2023/04/26 01:44:55;;;;;;;6.73;4.70;;;9.50;50.10;;;;;;5061981;28;20467;-85
2023/04/26 01:47:22;;;;;;;5.50;3.30;;;9.50;50.10;;;;;;5087560;27;20450;-84
2023/04/26 01:49:49;;;;;;;6.47;3.77;;;9.50;50.30;;;;;;5071451;28;20798;-85
2023/04/26 01:52:16;;;;;;;5.70;4.17;;;9.40;50.30;;;;;;5090278;27;20466;-84
2023/04/26 01:54:46;;;;;;;6.73;3.93;;;9.40;50.80;;;;;;5081107;28;20474;-85
2023/04/26 01:57:14;;;;;;;6.67;3.60;;;9.40;50.20;;;;;;5062881;28;20893;-84
2023/04/26 01:59:41;;;;;;;6.30;4.60;;;9.40;49.80;;;;;;5090913;28;20513;-85
2023/04/26 02:02:08;;;;;;;9.40;4.70;;;9.20;50.10;;;;;;5039329;28;20448;-85
2023/04/26 02:04:38;;;;;;;4.40;3.80;;;9.20;50.40;;;;;;5062578;28;21147;-84
2023/04/26 02:07:05;;;;;;;4.40;3.83;;;9.20;50.20;;;;;;5091859;27;20444;-83
2023/04/26 02:09:32;;;;;;;6.57;4.70;;;9.20;50.60;;;;;;5074132;28;20447;-84
2023/04/26 02:11:59;;;;;;;5.23;3.83;;;9.30;50.40;;;;;;5071520;28;20559;-88
2023/04/26 02:14:28;;;;;;;8.97;4.70;;;9.20;50.40;;;;;;5090164;28;21389;-85
2023/04/26 02:16:55;;;;;;;7.87;4.63;;;9.10;49.90;;;;;;5079203;28;20448;-85
2023/04/26 02:19:22;;;;;;;10.23;4.80;;;9.10;50.40;;;;;;5087465;27;20490;-85
2023/04/26 02:21:54;;;;;;;5.80;4.57;;;9.00;50.60;;;;;;5042929;28;20474;-84
2023/04/26 02:24:22;;;;;;;5.40;4.60;;;9.10;50.40;;;;;;5069143;27;20503;-86
2023/04/26 02:26:49;;;;;;;9.83;5.00;;;9.00;50.40;;;;;;5107591;27;20443;-85
2023/04/26 02:29:16;;;;;;;8.07;5.30;;;9.00;50.50;;;;;;5058848;28;20521;-84
2023/04/26 02:31:44;;;;;;;11.33;5.97;;;9.00;50.90;;;;;;5093065;27;20451;-86
2023/04/26 02:34:12;;;;;;;5.13;4.63;;;8.90;50.70;;;;;;5080713;28;20826;-87
2023/04/26 02:36:39;;;;;;;5.60;4.50;;;8.80;51.00;;;;;;5088805;28;20575;-84
2023/04/26 02:39:07;;;;;;;6.20;4.00;;;8.80;50.60;;;;;;5075554;27;20448;-86
2023/04/26 02:41:34;;;;;;;6.90;3.93;;;8.80;50.50;;;;;;5065539;28;20460;-83
2023/04/26 02:44:01;;;;;;;11.03;5.50;;;8.80;50.50;;;;;;5076640;28;20462;-84
2023/04/26 02:46:29;;;;;;;7.60;3.83;;;8.80;50.60;;;;;;5056819;28;20442;-85
2023/04/26 02:48:57;;;;;;;8.17;4.87;;;8.80;50.60;;;;;;5079175;28;20987;-83
2023/04/26 02:51:24;;;;;;;6.63;5.33;;;8.60;51.00;;;;;;5080379;28;20500;-86
2023/04/26 02:53:51;;;;;;;13.00;4.97;;;8.50;51.80;;;;;;5092024;27;20485;-84
2023/04/26 02:56:19;;;;;;;6.00;4.90;;;8.50;51.90;;;;;;5104696;27;20464;-83
2023/04/26 02:58:46;;;;;;;8.33;5.53;;;8.70;51.60;;;;;;5080119;28;20527;-85
2023/04/26 03:01:14;;;;;;;5.93;4.63;;;8.60;51.70;;;;;;5070076;28;20444;-85
2023/04/26 03:03:42;;;;;;;11.40;5.77;;;8.50;52.30;;;;;;5065835;28;20509;-82
2023/04/26 03:06:11;;;;;;;18.33;6.73;;;8.40;53.20;;;;;;5070928;28;20522;-86
2023/04/26 03:08:38;;;;;;;12.60;6.27;;;8.20;53.90;;;;;;5043730;28;20439;-84
2023/04/26 03:11:05;;;;;;;13.57;5.63;;;8.20;53.70;;;;;;5068692;28;20495;-85
2023/04/26 03:13:32;;;;;;;10.77;5.73;;;8.30;53.50;;;;;;5057149;28;20455;-84
2023/04/26 03:16:00;;;;;;;12.80;7.97;;;8.30;53.90;;;;;;5071807;28;21158;-86
2023/04/26 03:18:27;;;;;;;23.60;8.10;;;8.20;54.20;;;;;;5102487;27;20490;-88
2023/04/26 03:20:54;;;;;;;13.13;7.97;;;8.00;54.50;;;;;;5049494;28;20446;-82
2023/04/26 03:23:24;;;;;;;12.00;7.00;;;7.60;55.10;;;;;;5054320;28;20960;-85
2023/04/26 03:25:52;;;;;;;11.17;5.90;;;7.60;55.20;;;;;;5088568;28;20459;-84
2023/04/26 03:28:20;;;;;;;6.50;5.77;;;7.80;54.40;;;;;;5076321;28;20500;-85
2023/04/26 03:30:48;;;;;;;9.87;6.50;;;7.70;53.40;;;;;;5040338;28;20971;-84
2023/04/26 03:33:16;;;;;;;5.83;4.80;;;7.70;53.70;;;;;;5066070;28;20466;-84
2023/04/26 03:35:43;;;;;;;9.73;5.00;;;7.70;53.10;;;;;;5085604;27;20464;-85
2023/04/26 03:38:11;;;;;;;6.33;5.53;;;7.70;53.10;;;;;;5047190;28;20447;-85
2023/04/26 03:40:39;;;;;;;9.90;6.63;;;7.60;54.00;;;;;;5046420;28;20472;-86
2023/04/26 03:43:07;;;;;;;10.40;6.70;;;7.60;54.00;;;;;;5085381;28;20446;-85
2023/04/26 03:45:34;;;;;;;11.00;6.00;;;7.70;53.50;;;;;;5092200;28;20563;-83
2023/04/26 03:48:01;;;;;;;6.57;5.77;;;7.80;53.30;;;;;;5071218;28;20784;-84
2023/04/26 03:50:29;;;;;;;9.70;6.17;;;7.90;53.30;;;;;;5093896;28;20485;-85
2023/04/26 03:52:56;;;;;;;8.13;5.87;;;7.40;54.20;;;;;;5072090;28;20970;-87
2023/04/26 03:55:23;;;;;;;10.03;5.63;;;7.60;53.70;;;;;;5087384;28;20509;-83
2023/04/26 03:57:53;;;;;;;9.30;5.60;;;7.70;53.50;;;;;;5061245;28;20523;-85
2023/04/26 04:00:21;;;;;;;7.70;5.93;;;7.80;53.30;;;;;;5068876;28;20448;-84
2023/04/26 04:02:48;;;;;;;7.57;5.60;;;7.90;53.00;;;;;;5063536;28;21012;-82
2023/04/26 04:05:23;;;;;;;8.17;5.97;;;8.10;53.20;;;;;;5106919;27;20552;-85
2023/04/26 04:07:51;;;;;;;11.70;6.57;;;8.10;53.50;;;;;;5073421;28;20961;-83
2023/04/26 04:10:18;;;;;;;11.30;7.30;;;8.10;53.80;;;;;;5078186;28;20443;-83
2023/04/26 04:12:45;;;;;;;12.87;7.10;;;8.00;54.10;;;;;;5088638;28;20454;-85
2023/04/26 04:15:14;;;;;;;12.70;7.87;;;7.70;55.30;;;;;;5051258;28;20467;-85
2023/04/26 04:17:45;;;;;;;14.43;7.27;;;7.50;55.40;;;;;;5056444;28;20451;-85
2023/04/26 04:20:13;;;;;;;27.83;8.77;;;7.20;56.40;;;;;;5069798;28;20447;-83
2023/04/26 04:22:40;;;;;;;12.70;7.93;;;6.90;57.10;;;;;;5076243;28;20439;-83
2023/04/26 04:25:09;;;;;;;11.17;6.93;;;6.70;57.90;;;;;;5070852;28;20475;-83
2023/04/26 04:27:37;;;;;;;20.30;8.07;;;6.40;58.70;;;;;;5056191;28;20439;-82
2023/04/26 04:30:07;;;;;;;14.40;7.77;;;6.30;59.10;;;;;;5086748;28;20446;-83
2023/04/26 04:32:38;;;;;;;11.37;7.90;;;6.00;59.70;;;;;;5058709;28;20442;-84
2023/04/26 04:35:06;;;;;;;15.90;7.63;;;6.30;60.00;;;;;;5096047;28;20460;-84
2023/04/26 04:37:33;;;;;;;16.80;8.93;;;6.10;59.70;;;;;;5065947;28;21089;-83
2023/04/26 04:40:00;;;;;;;12.33;7.83;;;6.00;60.70;;;;;;5113907;27;20451;-85
2023/04/26 04:42:28;;;;;;;16.87;8.80;;;6.10;61.30;;;;;;5069856;28;20793;-84
2023/04/26 04:44:58;;;;;;;16.80;9.30;;;6.30;60.60;;;;;;5094938;27;20475;-82
2023/04/26 04:47:26;;;;;;;23.10;11.67;;;6.40;60.20;;;;;;5069125;28;20449;-84
2023/04/26 04:49:55;;;;;;;17.57;9.80;;;6.90;59.60;;;;;;5092743;28;20483;-83
2023/04/26 04:52:22;;;;;;;109.60;15.10;;;6.80;59.20;;;;;;5077376;28;20932;-84
2023/04/26 04:54:49;;;;;;;98.77;11.43;;;6.20;61.00;;;;;;5079792;28;20506;-84
2023/04/26 04:57:17;;;;;;;20.33;10.63;;;6.10;61.60;;;;;;5113297;27;20475;-85
2023/04/26 04:59:45;;;;;;;45.03;10.90;;;6.40;61.30;;;;;;5067304;28;20450;-85
2023/04/26 05:02:13;;;;;;;54.90;10.20;;;6.40;61.20;;;;;;5099601;27;20451;-83
2023/04/26 05:04:40;;;;;;;70.90;12.80;;;6.40;60.80;;;;;;5082381;28;20482;-84
2023/04/26 05:07:08;;;;;;;23.03;11.03;;;6.30;60.90;;;;;;5090287;28;20448;-83
2023/04/26 05:09:37;;;;;;;45.13;12.87;;;6.50;61.00;;;;;;5111972;27;20529;-82
2023/04/26 05:12:04;;;;;;;21.57;14.60;;;6.50;60.50;;;;;;5082115;28;20452;-82
2023/04/26 05:14:31;;;;;;;28.23;13.23;;;6.60;60.70;;;;;;5069150;28;20581;-85
2023/04/26 05:16:58;;;;;;;21.20;11.23;;;6.90;60.20;;;;;;5095223;27;20525;-82
2023/04/26 05:19:26;;;;;;;33.30;12.13;;;7.20;59.50;;;;;;5063501;28;20517;-84
2023/04/26 05:21:54;;;;;;;59.53;14.57;;;7.40;58.50;;;;;;5098420;28;20463;-83
2023/04/26 05:24:23;;;;;;;130.47;17.30;;;7.10;58.70;;;;;;5049986;28;20830;-83
2023/04/26 05:26:50;;;;;;;22.40;12.07;;;6.90;59.40;;;;;;5085132;28;20446;-83
2023/04/26 05:29:31;;;;;;;21.20;11.40;;;6.50;61.40;;;;;;5096952;27;20454;-83
2023/04/26 05:32:08;;;;;;;24.63;11.37;;;6.90;61.40;;;;;;5108407;27;20459;-84
2023/04/26 05:35:02;;;;;;;23.03;10.60;;;7.30;60.30;;;;;;5065335;28;20474;-86
2023/04/26 05:37:39;;;;;;;23.10;12.37;;;7.70;58.90;;;;;;5091713;28;21063;-83
2023/04/26 05:40:11;;;;;;;20.17;12.30;;;8.00;57.70;;;;;;5107370;27;20537;-85
2023/04/26 05:42:38;;;;;;;65.50;13.50;;;8.10;56.90;;;;;;5063366;28;20451;-84
2023/04/26 05:45:09;;;;;;;20.67;11.43;;;7.40;58.20;;;;;;5090020;28;20481;-83
2023/04/26 05:47:36;;;;;;;17.80;11.97;;;7.20;59.90;;;;;;5093351;28;20447;-83
2023/04/26 05:50:04;;;;;;;15.70;10.30;;;7.50;59.90;;;;;;5069643;28;20452;-84
2023/04/26 05:52:31;;;;;;;22.03;13.17;;;7.60;59.30;;;;;;5110940;27;20485;-84
2023/04/26 05:54:58;;;;;;;24.73;12.40;;;7.60;58.80;;;;;;5067654;28;20476;-81
2023/04/26 05:57:27;;;;;;;18.53;11.00;;;7.70;58.50;;;;;;5103938;27;20988;-83
2023/04/26 05:59:54;;;;;;;19.23;10.73;;;7.60;58.40;;;;;;5109724;27;20454;-83
2023/04/26 06:02:21;;;;;;;24.93;10.70;;;7.90;58.50;;;;;;5071941;28;20526;-82
2023/04/26 06:04:48;;;;;;;19.73;11.37;;;8.30;58.10;;;;;;5081214;28;20466;-84
2023/04/26 06:07:18;;;;;;;16.80;11.57;;;8.30;57.30;;;;;;5063327;27;20444;-84
2023/04/26 06:09:47;;;;;;;19.53;11.40;;;8.20;57.70;;;;;;5052676;28;20517;-84
2023/04/26 06:12:15;;;;;;;21.43;10.00;;;8.10;58.10;;;;;;5091973;28;20467;-84
2023/04/26 06:14:46;;;;;;;28.90;11.67;;;8.10;57.60;;;;;;5108869;27;20498;-84
2023/04/26 06:17:17;;;;;;;18.20;10.80;;;8.20;57.50;;;;;;5074190;28;20499;-84
2023/04/26 06:19:44;;;;;;;17.10;9.47;;;8.30;57.40;;;;;;5090687;28;20461;-86
2023/04/26 06:22:11;;;;;;;19.97;11.50;;;8.10;57.00;;;;;;5075645;28;21016;-88
2023/04/26 06:24:38;;;;;;;20.60;10.87;;;8.10;57.80;;;;;;5083918;27;20469;-83
2023/04/26 06:27:05;;;;;;;18.83;10.73;;;8.10;57.90;;;;;;5063752;28;20451;-83
2023/04/26 06:29:33;;;;;;;18.67;10.70;;;8.30;57.70;;;;;;5076751;28;20472;-83
2023/04/26 06:32:02;;;;;;;13.60;9.10;;;8.40;57.30;;;;;;5075979;28;20786;-82
2023/04/26 06:34:30;;;;;;;17.87;9.90;;;8.50;57.50;;;;;;5074566;27;20470;-87
2023/04/26 06:36:57;;;;;;;16.60;9.90;;;8.60;57.10;;;;;;5089818;28;20476;-84
2023/04/26 06:39:25;;;;;;;13.03;8.57;;;8.70;57.20;;;;;;5071422;28;20941;-85
2023/04/26 06:41:52;;;;;;;15.73;10.00;;;9.00;56.40;;;;;;5054784;28;20512;-88
2023/04/26 06:44:27;;;;;;;17.13;9.77;;;9.00;55.80;;;;;;5070635;28;20680;-83
2023/04/26 06:47:03;;;;;;;17.57;10.10;;;8.60;56.80;;;;;;5082878;28;21106;-84
2023/04/26 06:49:32;;;;;;;16.30;9.63;;;8.70;57.50;;;;;;5071243;27;20448;-84
2023/04/26 06:51:59;;;;;;;14.57;9.10;;;9.00;57.10;;;;;;5090925;28;20442;-86
2023/04/26 06:54:28;;;;;;;10.23;8.30;;;8.80;57.20;;;;;;5065257;27;20562;-83
2023/04/26 06:56:55;;;;;;;14.67;8.73;;;8.70;57.50;;;;;;5048432;28;20460;-85
2023/04/26 06:59:22;;;;;;;17.03;8.97;;;8.80;57.50;;;;;;5081980;27;20872;-87
2023/04/26 07:01:49;;;;;;;26.83;8.40;;;8.80;57.30;;;;;;5083240;28;20440;-84
2023/04/26 07:04:19;;;;;;;15.70;9.30;;;9.00;57.50;;;;;;5090379;28;20472;-85
2023/04/26 07:06:46;;;;;;;12.60;9.03;;;9.20;56.90;;;;;;5056915;28;20443;-86
2023/04/26 07:09:13;;;;;;;16.40;8.80;;;9.70;56.30;;;;;;5084108;28;20479;-85
2023/04/26 07:11:40;;;;;;;11.60;7.97;;;9.70;55.20;;;;;;5074564;28;20457;-83
2023/04/26 07:14:07;;;;;;;9.30;6.60;;;9.50;55.50;;;;;;5067625;28;20475;-84
2023/04/26 07:16:34;;;;;;;9.53;6.40;;;9.60;55.60;;;;;;5046263;28;20474;-84
2023/04/26 07:19:01;;;;;;;10.53;7.03;;;10.10;54.50;;;;;;5091201;27;20470;-84
2023/04/26 07:21:30;;;;;;;10.90;5.37;;;10.50;53.90;;;;;;5092218;27;20455;-85
2023/04/26 07:23:58;;;;;;;7.00;5.90;;;10.50;52.80;;;;;;5094528;27;20460;-84
2023/04/26 07:26:26;;;;;;;7.70;5.57;;;10.80;53.10;;;;;;5068280;28;20531;-83
2023/04/26 07:28:53;;;;;;;8.60;5.60;;;11.00;51.90;;;;;;5072758;28;20458;-85
2023/04/26 07:31:20;;;;;;;8.50;5.10;;;11.10;51.10;;;;;;5091969;28;20475;-84
2023/04/26 07:33:47;;;;;;;7.07;4.63;;;10.90;51.40;;;;;;5091405;28;20496;-87
2023/04/26 07:36:14;;;;;;;9.40;5.07;;;10.90;51.20;;;;;;5089924;27;20447;-84
2023/04/26 07:38:43;;;;;;;6.60;4.30;;;10.80;50.80;;;;;;5060413;28;21971;-84
2023/04/26 07:41:11;;;;;;;11.53;4.40;;;10.80;50.90;;;;;;5087738;28;20986;-83
2023/04/26 07:43:39;;;;;;;6.33;5.07;;;10.80;50.40;;;;;;5105722;27;20455;-84
2023/04/26 07:46:06;;;;;;;6.90;4.10;;;11.00;50.80;;;;;;5081117;28;20929;-83
2023/04/26 07:48:33;;;;;;;7.97;4.30;;;11.10;50.70;;;;;;5087552;27;20448;-87
2023/04/26 07:51:07;;;;;;;5.13;4.40;;;11.30;50.30;;;;;;5072702;28;20589;-83
2023/04/26 07:53:35;;;;;;;6.70;4.40;;;11.50;50.10;;;;;;5070583;28;20458;-87
2023/04/26 07:56:05;;;;;;;6.63;3.93;;;11.70;50.20;;;;;;5089389;28;20531;-85
2023/04/26 07:58:32;;;;;;;4.13;3.50;;;11.80;49.50;;;;;;5072809;28;20517;-85
2023/04/26 08:00:59;;;;;;;4.77;3.13;;;11.80;48.20;;;;;;5090885;28;20438;-84
2023/04/26 08:03:27;;;;;;;6.53;3.20;;;12.00;46.50;;;;;;5088801;28;20929;-83
2023/04/26 08:05:54;;;;;;;3.70;2.67;;;12.40;45.80;;;;;;5091661;28;20829;-83
2023/04/26 08:08:21;;;;;;;4.40;2.70;;;12.70;44.30;;;;;;5090599;28;20428;-84
2023/04/26 08:10:48;;;;;;;3.40;2.90;;;12.50;43.50;;;;;;5044769;28;20956;-85
2023/04/26 08:13:17;;;;;;;4.70;2.60;;;12.60;42.30;;;;;;5106610;27;20494;-83
2023/04/26 08:15:44;;;;;;;3.73;2.50;;;12.40;42.40;;;;;;5075161;28;21051;-84
2023/04/26 08:18:12;;;;;;;4.80;2.33;;;12.50;42.30;;;;;;5061019;28;20931;-84
2023/04/26 08:20:39;;;;;;;5.00;2.53;;;12.50;42.50;;;;;;5075792;28;20944;-82
2023/04/26 08:23:06;;;;;;;4.83;2.10;;;12.50;40.70;;;;;;5059224;28;20583;-84
2023/04/26 08:25:33;;;;;;;5.80;2.73;;;12.70;41.90;;;;;;5105311;27;20537;-84
2023/04/26 08:28:01;;;;;;;7.63;3.03;;;12.90;40.20;;;;;;5078027;28;20822;-83
2023/04/26 08:30:30;;;;;;;3.00;2.33;;;13.20;40.10;;;;;;5101345;27;20447;-84
2023/04/26 08:32:57;;;;;;;2.47;2.20;;;13.40;39.90;;;;;;5092446;28;20435;-87
2023/04/26 08:35:24;;;;;;;4.03;2.53;;;13.60;39.60;;;;;;5076006;28;20481;-84
2023/04/26 08:37:51;;;;;;;3.50;2.40;;;13.50;39.30;;;;;;5056838;28;20879;-86
2023/04/26 08:40:23;;;;;;;5.17;2.20;;;13.50;38.50;;;;;;5086425;28;20479;-83
2023/04/26 08:42:52;;;;;;;3.43;2.17;;;13.60;38.60;;;;;;5090435;28;20454;-84
2023/04/26 08:45:20;;;;;;;7.00;2.43;;;13.40;38.30;;;;;;5088812;28;20468;-83
2023/04/26 08:47:50;;;;;;;5.23;2.83;;;13.50;38.20;;;;;;5076875;28;20541;-86
2023/04/26 08:50:20;;;;;;;2.93;1.90;;;13.00;37.60;;;;;;5068655;28;20448;-87
2023/04/26 08:52:50;;;;;;;5.10;2.50;;;13.00;38.00;;;;;;5087948;28;20823;-84
2023/04/26 08:55:18;;;;;;;4.50;2.23;;;13.00;39.50;;;;;;5090092;28;20459;-86
2023/04/26 08:57:47;;;;;;;4.50;2.80;;;13.20;40.20;;;;;;5049850;28;20868;-84
2023/04/26 09:00:16;;;;;;;4.83;2.60;;;13.30;38.70;;;;;;5064680;28;20428;-84
2023/04/26 09:02:47;;;;;;;3.07;2.40;;;13.50;38.20;;;;;;5088165;28;20432;-85
2023/04/26 09:05:15;;;;;;;4.50;3.30;;;13.90;38.10;;;;;;5075298;28;20885;-87
2023/04/26 09:07:46;;;;;;;7.03;2.47;;;14.10;38.20;;;;;;5074588;28;20477;-84
2023/04/26 09:10:18;;;;;;;2.80;2.00;;;14.40;39.00;;;;;;5072596;28;20534;-82
2023/04/26 09:12:45;;;;;;;2.80;1.80;;;14.30;35.10;;;;;;5059474;28;20443;-86
2023/04/26 09:15:14;;;;;;;5.50;2.20;;;14.20;35.60;;;;;;5066449;28;20878;-82
2023/04/26 09:17:41;;;;;;;3.80;2.23;;;14.40;35.60;;;;;;5091338;27;21034;-82
2023/04/26 09:20:22;;;;;;;3.10;2.10;;;14.70;35.60;;;;;;5094216;28;20454;-81
2023/04/26 09:22:50;;;;;;;4.17;2.57;;;14.70;35.80;;;;;;5106864;27;20475;-84
2023/04/26 09:25:19;;;;;;;6.03;3.07;;;14.40;35.60;;;;;;5095570;27;20501;-81
2023/04/26 09:27:46;;;;;;;3.20;2.20;;;14.00;36.60;;;;;;5083143;27;20453;-83
2023/04/26 09:30:16;;;;;;;4.83;2.53;;;13.80;36.00;;;;;;5045149;28;20528;-83
2023/04/26 09:32:45;;;;;;;2.60;1.83;;;13.90;36.80;;;;;;5072764;28;20464;-85
2023/04/26 09:35:25;;;;;;;7.07;2.23;;;13.80;36.60;;;;;;5092494;27;20484;-86
2023/04/26 09:37:53;;;;;;;5.33;2.00;;;13.70;37.10;;;;;;5090540;27;20561;-84
2023/04/26 09:40:21;;;;;;;3.30;1.70;;;13.90;37.70;;;;;;5090677;27;20435;-84
2023/04/26 09:42:57;;;;;;;2.50;2.30;;;14.10;35.60;;;;;;5094320;28;20549;-86
2023/04/26 09:45:24;;;;;;;4.33;2.10;;;14.30;35.20;;;;;;5078797;28;20460;-87
2023/04/26 09:47:51;;;;;;;11.17;2.27;;;14.50;35.10;;;;;;5091477;28;20562;-84
2023/04/26 09:50:31;;;;;;;2.63;1.83;;;14.90;37.70;;;;;;5083802;28;20499;-87
2023/04/26 09:52:59;;;;;;;5.40;2.43;;;15.20;34.70;;;;;;5066244;28;20454;-86
2023/04/26 09:55:27;;;;;;;4.57;2.13;;;14.90;34.00;;;;;;5093470;27;20491;-85
2023/04/26 09:57:54;;;;;;;3.10;2.40;;;15.20;34.60;;;;;;5061010;27;20474;-84
2023/04/26 10:00:22;;;;;;;7.33;2.03;;;15.10;33.30;;;;;;5090871;28;20873;-83
2023/04/26 10:02:49;;;;;;;5.97;2.90;;;15.30;33.00;;;;;;5092167;28;20475;-87
2023/04/26 10:05:17;;;;;;;4.90;2.13;;;15.40;33.00;;;;;;5092162;28;20513;-84
2023/04/26 10:07:46;;;;;;;4.53;2.37;;;15.10;33.30;;;;;;5090972;27;20440;-82
2023/04/26 10:10:13;;;;;;;3.17;1.97;;;15.00;33.50;;;;;;5110695;27;20453;-87
2023/04/26 10:12:42;;;;;;;6.47;2.90;;;14.90;33.10;;;;;;5091834;27;20512;-83
2023/04/26 10:15:10;;;;;;;3.97;2.60;;;14.70;33.50;;;;;;5048969;28;20570;-82
2023/04/26 10:17:38;;;;;;;4.70;2.50;;;14.60;34.30;;;;;;5091709;28;20499;-84
2023/04/26 10:20:10;;;;;;;3.00;1.30;;;14.90;35.10;;;;;;5091873;27;20534;-86
2023/04/26 10:22:43;;;;;;;3.63;1.83;;;15.20;33.80;;;;;;5074938;28;20450;-85
2023/04/26 10:25:12;;;;;;;6.40;2.30;;;15.30;30.70;;;;;;5093763;28;21062;-84
2023/04/26 10:27:52;;;;;;;4.47;2.33;;;15.30;31.40;;;;;;5087588;27;20443;-84
2023/04/26 10:30:21;;;;;;;3.30;1.73;;;15.60;32.80;;;;;;5093924;28;20667;-86
2023/04/26 10:33:16;;;;;;;4.40;2.50;;;16.00;31.70;;;;;;5090455;28;20451;-84
2023/04/26 10:36:07;;;;;;;2.60;1.37;;;16.00;30.10;;;;;;5089287;28;20466;-82
2023/04/26 10:38:36;;;;;;;2.20;1.70;;;15.80;32.00;;;;;;5092178;27;20475;-82
2023/04/26 10:41:32;;;;;;;5.07;1.97;;;15.90;29.40;;;;;;5084535;28;20447;-84
2023/04/26 10:44:22;;;;;;;2.50;1.87;;;15.70;30.10;;;;;;5076348;27;20472;-83
2023/04/26 10:46:51;;;;;;;1.83;1.60;;;15.60;29.20;;;;;;5092613;27;20475;-85
2023/04/26 10:49:22;;;;;;;5.90;1.70;;;15.90;29.40;;;;;;5073107;28;20453;-85
2023/04/26 10:52:12;;;;;;;3.23;1.50;;;15.90;29.50;;;;;;5088684;27;20451;-83
2023/04/26 10:54:53;;;;;;;3.10;2.20;;;15.80;29.30;;;;;;5089695;28;20475;-81
2023/04/26 10:57:23;;;;;;;3.20;2.27;;;16.00;29.90;;;;;;5090377;28;20442;-85
2023/04/26 11:00:23;;;;;;;3.57;1.83;;;16.20;29.50;;;;;;5091337;27;20897;-86
2023/04/26 11:02:56;;;;;;;3.53;1.80;;;16.50;30.20;;;;;;5071781;28;20441;-85
2023/04/26 11:05:52;;;;;;;5.10;2.27;;;16.80;29.00;;;;;;5091732;28;20807;-84
2023/04/26 11:08:20;;;;;;;7.10;2.40;;;16.70;28.50;;;;;;5075508;28;20439;-86
2023/04/26 11:10:56;;;;;;;4.23;2.47;;;16.70;29.90;;;;;;5090115;28;20539;-85
2023/04/26 11:13:25;;;;;;;7.77;2.20;;;16.70;29.10;;;;;;5089587;28;20913;-84
2023/04/26 11:16:01;;;;;;;10.83;4.53;;;16.80;28.90;;;;;;5071776;27;20899;-85
2023/04/26 11:18:29;;;;;;;3.83;2.10;;;16.80;29.00;;;;;;5104501;27;20562;-82
2023/04/26 11:20:57;;;;;;;5.90;2.00;;;17.00;29.50;;;;;;5072758;27;20828;-85
2023/04/26 11:23:25;;;;;;;2.30;1.90;;;17.10;29.10;;;;;;5064727;28;20454;-84
2023/04/26 11:25:53;;;;;;;3.27;1.60;;;16.90;27.80;;;;;;5089946;28;20499;-82
2023/04/26 11:28:22;;;;;;;3.67;2.03;;;16.30;28.80;;;;;;5072160;28;20953;-85
2023/04/26 11:30:50;;;;;;;2.10;1.90;;;16.30;30.90;;;;;;5065046;28;20435;-85
2023/04/26 11:33:19;;;;;;;3.37;2.10;;;16.50;28.50;;;;;;5073272;28;20443;-85
2023/04/26 11:35:46;;;;;;;3.83;2.20;;;16.30;28.70;;;;;;5088002;28;20480;-79
2023/04/26 11:38:14;;;;;;;5.40;2.37;;;16.20;29.00;;;;;;5073992;28;20467;-85
2023/04/26 11:40:41;;;;;;;3.43;2.10;;;16.50;29.90;;;;;;5103378;27;20458;-83
2023/04/26 11:43:09;;;;;;;6.07;2.70;;;16.90;29.10;;;;;;5107305;27;20531;-83
2023/04/26 11:45:37;;;;;;;4.57;2.50;;;17.00;28.90;;;;;;5089344;28;20525;-85
2023/04/26 11:48:07;;;;;;;2.33;1.80;;;17.00;29.00;;;;;;5058548;28;20443;-85
2023/04/26 11:50:36;;;;;;;3.50;3.03;;;17.10;29.80;;;;;;5087270;28;20495;-83
2023/04/26 11:53:06;;;;;;;4.20;2.30;;;17.10;27.00;;;;;;5082929;28;20492;-84
2023/04/26 11:55:34;;;;;;;3.20;1.80;;;17.40;28.00;;;;;;5073494;28;20471;-83
2023/04/26 11:58:09;;;;;;;1.60;1.50;;;17.50;27.70;;;;;;5075462;28;20467;-85
2023/04/26 12:00:36;;;;;;;4.03;3.10;;;17.80;27.50;;;;;;5090490;28;20519;-87
2023/04/26 12:03:09;;;;;;;2.50;1.83;;;17.60;26.10;;;;;;5070952;28;20459;-84
2023/04/26 12:05:37;;;;;;;3.33;2.70;;;17.50;26.30;;;;;;5088363;28;20502;-87
2023/04/26 12:08:04;;;;;;;2.93;2.17;;;17.50;26.80;;;;;;5058687;28;20475;-83
2023/04/26 12:10:34;;;;;;;2.63;2.00;;;17.30;27.60;;;;;;5078742;28;20451;-83
2023/04/26 12:13:01;;;;;;;3.10;2.00;;;17.30;29.50;;;;;;5070308;28;20512;-84
2023/04/26 12:15:30;;;;;;;2.80;1.83;;;17.20;28.90;;;;;;5088154;28;20983;-82
2023/04/26 12:17:59;;;;;;;4.93;2.50;;;17.20;30.20;;;;;;5062583;28;20470;-85
2023/04/26 12:20:33;;;;;;;4.77;2.33;;;17.30;29.40;;;;;;5080097;28;20436;-82
2023/04/26 12:23:01;;;;;;;3.37;1.97;;;17.50;28.80;;;;;;5061361;28;20450;-84
2023/04/26 12:25:29;;;;;;;4.57;2.27;;;17.40;29.40;;;;;;5088550;28;20529;-82
2023/04/26 12:27:57;;;;;;;4.13;2.37;;;17.00;28.40;;;;;;5089611;28;20951;-86
2023/04/26 12:30:25;;;;;;;5.03;2.57;;;16.80;29.90;;;;;;5071359;28;20497;-83
2023/04/26 12:33:01;;;;;;;2.53;2.10;;;16.90;28.80;;;;;;5063369;28;20443;-85
2023/04/26 12:35:29;;;;;;;5.80;2.30;;;16.80;28.60;;;;;;5088256;28;20553;-84
2023/04/26 12:37:59;;;;;;;1.60;1.40;;;17.00;28.60;;;;;;5074343;28;20479;-84
2023/04/26 12:40:27;;;;;;;6.30;2.90;;;17.30;28.50;;;;;;5091525;28;20530;-82
2023/04/26 12:42:55;;;;;;;4.87;3.30;;;17.30;29.10;;;;;;5093780;28;20450;-84
2023/04/26 12:45:24;;;;;;;9.97;7.07;;;17.20;29.00;;;;;;5091462;27;20499;-85
2023/04/26 12:47:51;;;;;;;7.43;2.50;;;17.30;29.10;;;;;;5092395;28;20447;-85
2023/04/26 12:50:18;;;;;;;5.20;1.90;;;17.50;28.00;;;;;;5089822;27;20458;-87
2023/04/26 12:52:45;;;;;;;3.30;2.43;;;17.80;28.60;;;;;;5091678;27;20508;-87
2023/04/26 12:55:16;;;;;;;3.70;2.40;;;18.00;29.00;;;;;;5050465;28;20524;-85
2023/04/26 12:57:45;;;;;;;3.40;1.83;;;18.30;28.60;;;;;;5091316;27;20447;-83